Time;durP1;ratioP1;P1;durP2;ratioP2;P2;SDS_P1;SDS_P2;PMS_P1;PMS_P2;Temp;Humidity;BMP_temperature;BMP_pressure;BME280_temperature;BME280_humidity;BME280_pressure;Samples;Min_cycle;Max_cycle;Signal;HPM_P1;HPM_P2
2021/08/13 00:01:15;;;;;;;;;9.40;9.40;;;;;24.05;51.22;101276.22;4955903;28;8845;-73
2021/08/13 00:04:11;;;;;;;;;7.40;7.40;;;;;24.06;51.57;101277.03;4943681;28;8837;-72
2021/08/13 00:07:07;;;;;;;;;9.00;9.00;;;;;24.07;51.88;101293.56;4943333;28;8845;-72
2021/08/13 00:10:04;;;;;;;;;8.20;6.60;;;;;24.08;51.34;101283.91;4942073;28;8920;-73
2021/08/13 00:13:00;;;;;;;;;8.00;8.00;;;;;24.28;52.09;101294.72;4955391;28;8863;-72
2021/08/13 00:15:56;;;;;;;;;7.00;7.00;;;;;24.36;50.97;101299.13;4955237;28;8857;-72
2021/08/13 00:18:52;;;;;;;;;7.80;7.80;;;;;24.33;50.85;101300.78;4955079;28;9038;-73
2021/08/13 00:21:49;;;;;;;;;8.00;8.00;;;;;24.25;50.74;101307.66;4954862;28;8927;-72
2021/08/13 00:24:45;;;;;;;;;7.80;7.80;;;;;24.22;52.76;101308.44;4956302;28;8909;-71
2021/08/13 00:27:40;;;;;;;;;10.80;10.80;;;;;24.14;51.31;101306.88;4954661;28;8861;-72
2021/08/13 00:30:37;;;;;;;;;11.40;11.40;;;;;24.25;51.00;101299.16;4954859;28;9606;-73
2021/08/13 00:33:32;;;;;;;;;7.80;7.80;;;;;24.13;51.72;101300.41;4954960;28;8877;-73
2021/08/13 00:36:28;;;;;;;;;8.20;8.20;;;;;24.24;50.99;101308.06;4954689;28;8837;-73
2021/08/13 00:39:23;;;;;;;;;9.40;9.00;;;;;24.05;52.60;101307.31;4942200;28;8860;-73
2021/08/13 00:42:20;;;;;;;;;8.00;8.00;;;;;24.14;51.40;101292.75;4954673;28;8864;-73
2021/08/13 00:45:15;;;;;;;;;8.60;8.60;;;;;24.26;52.32;101297.94;4942483;28;8876;-73
2021/08/13 00:48:11;;;;;;;;;10.40;10.40;;;;;24.30;52.57;101304.38;4955029;28;8853;-73
2021/08/13 00:51:06;;;;;;;;;10.80;10.80;;;;;24.24;52.19;101313.72;4954972;28;8853;-73
2021/08/13 00:54:02;;;;;;;;;9.80;9.80;;;;;24.21;51.82;101301.19;4954426;28;8877;-73
2021/08/13 00:56:58;;;;;;;;;7.60;7.00;;;;;24.39;52.70;101310.44;4955149;28;8861;-73
2021/08/13 00:59:55;;;;;;;;;11.40;11.40;;;;;24.18;51.21;101316.16;4956435;28;8851;-74
2021/08/13 01:02:51;;;;;;;;;13.20;12.40;;;;;23.97;52.58;101311.38;4954579;28;8869;-73
2021/08/13 01:05:48;;;;;;;;;13.20;13.20;;;;;23.95;52.56;101310.19;4956209;28;8983;-74
2021/08/13 01:08:45;;;;;;;;;13.80;13.80;;;;;23.86;52.16;101307.78;4954161;28;8861;-74
2021/08/13 01:11:58;;;;;;;;;14.40;13.40;;;;;23.84;52.02;101313.81;4954372;28;8919;-73
2021/08/13 01:15:06;;;;;;;;;13.00;13.00;;;;;23.82;52.44;101313.41;4955481;28;8869;-74
2021/08/13 01:18:10;;;;;;;;;13.00;13.00;;;;;23.84;52.37;101308.16;4955601;28;8849;-74
2021/08/13 01:21:39;;;;;;;;;11.00;10.40;;;;;23.84;52.86;101313.00;4953937;28;8856;-74
2021/08/13 01:24:41;;;;;;;;;11.80;11.00;;;;;23.78;53.05;101311.84;4938095;28;9722;-74
2021/08/13 01:27:44;;;;;;;;;8.60;8.00;;;;;23.83;52.67;101308.56;4955096;28;8873;-74
2021/08/13 01:30:40;;;;;;;;;9.20;9.20;;;;;23.85;53.57;101317.47;4954480;28;8845;-74
2021/08/13 01:33:36;;;;;;;;;8.80;8.80;;;;;23.70;52.92;101318.72;4953870;28;8853;-74
2021/08/13 01:36:33;;;;;;;;;8.00;8.00;;;;;23.59;53.26;101313.03;4956393;28;8861;-73
2021/08/13 01:39:30;;;;;;;;;8.00;8.00;;;;;23.66;52.86;101315.06;4953771;28;9648;-73
2021/08/13 01:42:31;;;;;;;;;7.00;6.00;;;;;23.72;53.06;101317.09;4955433;28;8865;-73
2021/08/13 01:45:35;;;;;;;;;7.60;7.60;;;;;23.58;52.42;101312.22;4954345;29;8963;-74
2021/08/13 01:48:32;;;;;;;;;7.00;7.00;;;;;23.67;53.35;101320.31;4953971;29;8872;-74
2021/08/13 01:51:30;;;;;;;;;6.00;6.00;;;;;23.65;53.32;101330.41;4941626;29;8857;-74
2021/08/13 01:54:26;;;;;;;;;9.00;9.00;;;;;23.69;53.39;101329.16;4953695;29;8947;-73
2021/08/13 01:57:24;;;;;;;;;11.20;11.00;;;;;23.74;53.07;101328.78;4954140;29;8865;-74
2021/08/13 02:00:21;;;;;;;;;9.00;9.00;;;;;23.46;52.85;101334.41;4953806;29;8853;-73
2021/08/13 02:03:18;;;;;;;;;10.60;10.60;;;;;23.16;53.26;101335.63;4954240;29;8864;-77
2021/08/13 02:06:14;;;;;;;;;7.40;7.40;;;;;23.31;53.68;101336.44;4953324;29;8861;-73
2021/08/13 02:09:10;;;;;;;;;11.60;11.20;;;;;23.52;53.82;101342.06;4955123;29;8853;-72
2021/08/13 02:12:06;;;;;;;;;13.00;9.40;;;;;23.18;53.83;101336.03;4953982;29;8853;-74
2021/08/13 02:15:06;;;;;;;;;9.40;9.40;;;;;23.40;53.96;101342.50;4953559;29;8868;-74
2021/08/13 02:18:16;;;;;;;;;7.40;7.40;;;;;23.27;53.93;101353.38;4954418;29;8921;-74
2021/08/13 02:21:14;;;;;;;;;11.40;11.40;;;;;23.29;53.05;101350.94;4953565;28;8979;-75
2021/08/13 02:24:10;;;;;;;;;9.60;9.60;;;;;23.39;53.46;101348.56;4953934;29;8891;-72
2021/08/13 02:27:06;;;;;;;;;9.80;8.80;;;;;23.10;54.81;101359.81;4953890;29;8861;-73
2021/08/13 02:30:04;;;;;;;;;7.20;7.20;;;;;23.33;54.49;101361.44;4954216;29;8896;-73
2021/08/13 02:32:59;;;;;;;;;9.00;9.00;;;;;23.30;54.27;101365.84;4954333;29;8857;-73
2021/08/13 02:36:04;;;;;;;;;9.60;9.60;;;;;23.42;54.29;101359.81;4953885;29;9546;-73
2021/08/13 02:39:06;;;;;;;;;10.80;10.20;;;;;23.27;54.47;101361.81;4954175;29;8853;-73
2021/08/13 02:42:04;;;;;;;;;9.40;9.40;;;;;23.16;54.80;101369.50;4955042;28;9627;-73
2021/08/13 02:45:02;;;;;;;;;12.60;12.60;;;;;23.37;55.02;101365.06;4956733;28;8946;-72
2021/08/13 02:48:00;;;;;;;;;13.40;13.40;;;;;22.98;54.95;101363.00;4957267;28;8918;-75
2021/08/13 02:50:58;;;;;;;;;12.20;11.20;;;;;23.22;55.54;101365.03;4957192;28;8890;-73
2021/08/13 02:53:55;;;;;;;;;11.40;11.40;;;;;23.12;55.00;101370.69;4957407;28;8849;-72
2021/08/13 02:56:54;;;;;;;;;10.60;10.60;;;;;23.15;56.03;101373.50;4944648;28;8849;-74
2021/08/13 02:59:54;;;;;;;;;12.00;11.20;;;;;23.09;55.46;101377.94;4957192;28;8853;-73
2021/08/13 03:02:51;;;;;;;;;1.80;1.80;;;;;23.05;56.26;101377.13;4956740;28;8913;-73
2021/08/13 03:05:50;;;;;;;;;18.40;11.80;;;;;23.29;55.66;101372.72;4956987;28;8880;-72
2021/08/13 03:08:47;;;;;;;;;10.40;10.40;;;;;23.24;54.99;101371.13;4956849;28;8884;-73
2021/08/13 03:11:44;;;;;;;;;12.20;12.00;;;;;23.06;56.22;101366.63;4957785;28;8872;-73
2021/08/13 03:14:40;;;;;;;;;10.20;10.20;;;;;23.07;56.25;101366.22;4958235;28;9628;-72
2021/08/13 03:17:38;;;;;;;;;18.60;15.80;;;;;23.02;56.77;101377.94;4956965;28;8849;-73
2021/08/13 03:20:34;;;;;;;;;13.40;13.40;;;;;23.14;56.32;101379.53;4957149;28;8853;-74
2021/08/13 03:23:30;;;;;;;;;12.60;12.60;;;;;22.87;57.45;101382.72;4952319;28;8864;-72
2021/08/13 03:26:26;;;;;;;;;13.25;13.00;;;;;22.89;57.73;101383.13;4956840;28;8849;-76
2021/08/13 03:29:22;;;;;;;;;12.40;12.20;;;;;22.85;57.79;101382.31;4955763;28;8883;-73
2021/08/13 03:32:19;;;;;;;;;14.25;14.25;;;;;22.95;57.72;101392.00;4954912;28;8869;-74
2021/08/13 03:35:15;;;;;;;;;10.80;10.80;;;;;22.95;57.29;101390.00;4937688;29;8902;-74
2021/08/13 03:38:13;;;;;;;;;18.25;18.00;;;;;23.00;57.64;101386.78;4938930;29;8872;-71
2021/08/13 03:41:08;;;;;;;;;13.75;13.75;;;;;22.88;57.57;101383.53;4936585;29;8855;-72
2021/08/13 03:44:06;;;;;;;;;13.50;13.50;;;;;22.79;57.69;101381.06;4949115;28;8853;-75
2021/08/13 03:47:02;;;;;;;;;15.50;15.25;;;;;22.55;57.86;101382.59;4937640;29;8897;-75
2021/08/13 03:49:57;;;;;;;;;16.25;16.25;;;;;22.66;58.41;101388.25;4938624;28;8852;-74
2021/08/13 03:52:53;;;;;;;;;12.75;12.75;;;;;22.83;58.15;101392.34;4956198;28;8915;-74
2021/08/13 03:55:48;;;;;;;;;16.00;14.80;;;;;22.54;59.03;101388.59;4956014;28;9000;-75
2021/08/13 03:58:44;;;;;;;;;12.00;12.00;;;;;22.56;58.65;101381.38;4955400;28;8920;-74
2021/08/13 04:01:40;;;;;;;;;12.00;12.00;;;;;22.75;58.65;101385.84;4956473;28;8880;-75
2021/08/13 04:04:35;;;;;;;;;11.60;11.60;;;;;22.98;58.82;101394.81;4956064;28;8865;-76
2021/08/13 04:07:32;;;;;;;;;11.40;11.40;;;;;23.10;58.00;101393.66;4956722;28;8884;-75
2021/08/13 04:10:28;;;;;;;;;10.20;10.20;;;;;22.73;57.40;101397.53;4956636;28;9063;-76
2021/08/13 04:13:23;;;;;;;;;11.50;11.25;;;;;22.71;57.91;101404.78;4947645;28;8862;-77
2021/08/13 04:16:20;;;;;;;;;10.33;9.00;;;;;22.73;57.46;101413.66;4955925;28;8866;-77
2021/08/13 04:19:15;;;;;;;;;12.00;10.20;;;;;22.79;57.85;101408.44;4956157;28;9631;-76
2021/08/13 04:22:11;;;;;;;;;9.00;7.40;;;;;22.67;57.69;101409.59;4937402;28;8851;-77
2021/08/13 04:25:07;;;;;;;;;11.50;11.25;;;;;22.54;57.89;101428.06;4935172;29;8867;-76
2021/08/13 04:28:04;;;;;;;;;11.75;11.75;;;;;22.63;58.37;101425.72;4924998;29;8902;-75
2021/08/13 04:30:59;;;;;;;;;10.50;10.50;;;;;23.03;58.52;101430.31;4937194;29;8954;-75
2021/08/13 04:33:55;;;;;;;;;11.40;11.40;;;;;23.03;58.05;101425.47;4937020;29;8886;-76
2021/08/13 04:36:50;;;;;;;;;10.00;8.40;;;;;23.08;57.38;101431.91;4924295;29;8868;-77
2021/08/13 04:39:46;;;;;;;;;12.80;12.80;;;;;23.17;57.78;101435.19;4922797;29;8998;-76
2021/08/13 04:42:42;;;;;;;;;12.00;12.00;;;;;23.03;57.77;101435.97;4937382;29;8859;-76
2021/08/13 04:45:38;;;;;;;;;10.00;9.80;;;;;23.09;57.32;101430.75;4922694;29;8859;-76
2021/08/13 04:48:33;;;;;;;;;9.80;9.80;;;;;22.80;57.68;101438.25;4936609;29;8925;-78
2021/08/13 04:51:29;;;;;;;;;12.20;12.20;;;;;23.27;57.88;101429.56;4951046;28;8856;-78
2021/08/13 04:54:25;;;;;;;;;12.40;12.00;;;;;23.09;57.29;101434.38;4953943;28;9681;-75
2021/08/13 04:57:20;;;;;;;;;14.40;14.00;;;;;22.98;57.66;101437.13;4954872;28;8857;-76
2021/08/13 05:00:17;;;;;;;;;12.80;12.60;;;;;23.33;58.45;101438.44;4954461;28;8932;-76
2021/08/13 05:03:13;;;;;;;;;9.20;9.20;;;;;23.37;56.65;101433.59;4952467;28;9011;-76
2021/08/13 05:06:08;;;;;;;;;14.00;12.60;;;;;23.59;56.89;101446.53;4934678;29;8863;-77
2021/08/13 05:09:04;;;;;;;;;9.20;9.20;;;;;23.44;57.15;101444.09;4924155;28;8878;-77
2021/08/13 05:11:59;;;;;;;;;9.20;9.20;;;;;23.64;56.94;101448.19;4954393;28;8987;-77
2021/08/13 05:14:55;;;;;;;;;8.20;8.20;;;;;23.53;56.29;101445.31;4941928;28;9592;-78
2021/08/13 05:17:50;;;;;;;;;11.60;11.60;;;;;23.71;57.20;101453.03;4942210;28;8860;-78
2021/08/13 05:20:40;;;;;;;;;11.00;11.00;;;;;23.64;56.98;101453.84;4941482;28;8884;-77
2021/08/13 05:23:36;;;;;;;;;20.00;13.40;;;;;23.81;58.90;101457.88;4941190;28;8845;-79
2021/08/13 05:26:32;;;;;;;;;6.20;6.20;;;;;23.58;57.05;101459.03;4956834;28;9591;-77
2021/08/13 05:29:28;;;;;;;;;10.20;9.60;;;;;23.80;56.86;101453.44;4942885;28;8896;-77
2021/08/13 05:32:24;;;;;;;;;9.80;9.40;;;;;23.89;55.46;101459.50;4955041;28;8872;-77
2021/08/13 05:35:20;;;;;;;;;10.40;10.40;;;;;23.94;56.33;101456.28;4954604;28;8900;-77
2021/08/13 05:38:16;;;;;;;;;9.40;9.40;;;;;23.89;56.42;101459.50;4952905;28;8869;-76
2021/08/13 05:41:13;;;;;;;;;9.20;8.20;;;;;23.98;54.30;101457.06;4956046;28;8891;-76
2021/08/13 05:44:26;;;;;;;;;6.60;6.60;;;;;24.03;54.85;101453.84;4954437;29;8849;-77
2021/08/13 05:47:22;;;;;;;;;9.40;9.40;;;;;24.10;56.71;101459.47;4954088;29;8849;-75
2021/08/13 05:50:18;;;;;;;;;8.80;8.20;;;;;23.75;55.15;101465.94;4954238;29;9068;-77
2021/08/13 05:53:13;;;;;;;;;7.00;6.80;;;;;23.85;55.07;101453.84;4953825;29;8995;-78
2021/08/13 05:56:09;;;;;;;;;8.80;8.80;;;;;24.02;55.17;101452.22;4943583;29;8852;-75
2021/08/13 05:59:04;;;;;;;;;8.60;8.60;;;;;24.09;54.33;101446.56;4951935;29;8868;-76
2021/08/13 06:02:00;;;;;;;;;8.20;8.20;;;;;24.02;54.22;101459.91;4949768;29;8884;-75
2021/08/13 06:04:56;;;;;;;;;5.80;5.80;;;;;23.97;55.04;101463.13;4935252;29;8898;-76
2021/08/13 06:07:54;;;;;;;;;8.00;8.00;;;;;24.25;55.44;101460.28;4952062;29;8872;-75
2021/08/13 06:10:51;;;;;;;;;11.00;10.20;;;;;24.44;54.62;101461.84;4954058;29;8875;-75
2021/08/13 06:13:47;;;;;;;;;10.00;8.20;;;;;24.78;54.27;101445.19;4951025;29;9150;-75
2021/08/13 06:16:42;;;;;;;;;7.20;7.20;;;;;24.49;53.25;101463.47;4941509;29;8871;-76
2021/08/13 06:19:38;;;;;;;;;6.80;6.80;;;;;24.64;54.89;101460.19;4942234;28;8946;-75
2021/08/13 06:22:33;;;;;;;;;10.80;10.80;;;;;24.75;53.16;101456.50;4952604;28;8940;-75
2021/08/13 06:25:29;;;;;;;;;10.40;10.40;;;;;24.82;53.40;101453.66;4954666;28;8873;-76
2021/08/13 06:28:25;;;;;;;;;5.00;5.00;;;;;24.93;52.92;101460.91;4945509;28;8872;-78
2021/08/13 06:31:21;;;;;;;;;6.00;6.00;;;;;24.64;51.92;101465.84;4951656;28;8877;-77
2021/08/13 06:34:18;;;;;;;;;7.40;7.40;;;;;24.60;53.57;101464.25;4955191;28;8872;-78
2021/08/13 06:37:13;;;;;;;;;8.80;8.80;;;;;24.73;53.32;101473.91;4944572;28;8962;-77
2021/08/13 06:39:41;;;;;;;;;14.40;14.40;;;;;24.98;52.72;101470.97;4957894;28;8857;-76
2021/08/13 06:42:13;;;;;;;;;17.00;17.00;;;;;25.12;52.18;101485.06;4957667;28;8900;-76
2021/08/13 06:45:12;;;;;;;;;30.50;29.25;;;;;25.28;52.46;101486.63;4952999;28;8887;-78
2021/08/13 06:48:08;;;;;;;;;17.00;16.80;;;;;24.98;52.13;101481.47;4972880;28;8876;-77
2021/08/13 06:51:04;;;;;;;;;13.20;13.20;;;;;25.37;51.65;101479.28;4945643;28;8880;-78
2021/08/13 06:53:59;;;;;;;;;23.20;23.20;;;;;25.65;51.69;101483.94;4938715;28;8908;-79
2021/08/13 06:56:55;;;;;;;;;51.75;42.75;;;;;25.73;51.23;101484.72;4950532;28;8857;-78
2021/08/13 06:59:50;;;;;;;;;14.40;14.40;;;;;25.69;50.93;101469.78;4956704;28;8871;-77
2021/08/13 07:02:49;;;;;;;;;10.00;10.00;;;;;25.30;49.33;101484.97;4956901;28;8864;-77
2021/08/13 07:05:44;;;;;;;;;36.20;32.80;;;;;25.41;51.84;101480.06;4956282;28;8891;-76
2021/08/13 07:08:43;;;;;;;;;16.60;16.60;;;;;25.34;50.25;101479.31;4957677;28;8883;-78
2021/08/13 07:11:39;;;;;;;;;4.80;4.80;;;;;25.38;49.50;101482.91;4943942;28;8833;-76
2021/08/13 07:14:35;;;;;;;;;18.80;17.80;;;;;25.68;50.17;101488.78;4955893;28;8852;-75
2021/08/13 07:17:03;;;;;;;;;14.60;14.60;;;;;25.84;50.24;101490.31;4957091;28;8894;-77
2021/08/13 07:20:01;;;;;;;;;18.80;18.80;;;;;25.70;48.87;101491.22;4940603;28;8880;-76
2021/08/13 07:22:59;;;;;;;;;7.20;7.20;;;;;25.74;48.58;101492.81;4956341;28;8871;-76
2021/08/13 07:25:55;;;;;;;;;9.20;9.20;;;;;25.92;49.96;101487.03;4924040;29;8886;-76
2021/08/13 07:28:52;;;;;;;;;10.40;10.40;;;;;25.63;48.98;101491.25;4936865;29;8854;-77
2021/08/13 07:31:49;;;;;;;;;10.00;10.00;;;;;25.66;48.83;101493.25;4950807;29;8848;-77
2021/08/13 07:34:45;;;;;;;;;9.00;9.00;;;;;25.94;49.65;101497.94;4936957;29;8938;-81
2021/08/13 07:37:41;;;;;;;;;14.20;13.40;;;;;25.94;49.22;101487.41;4940564;28;8860;-78
2021/08/13 07:40:37;;;;;;;;;11.80;11.80;;;;;25.81;46.96;101500.44;4956051;28;8895;-79
2021/08/13 07:43:33;;;;;;;;;11.00;11.00;;;;;25.92;48.85;101489.84;4958924;28;8908;-75
2021/08/13 07:46:29;;;;;;;;;6.60;6.60;;;;;26.01;48.17;101509.22;4955636;28;8891;-76
2021/08/13 07:49:25;;;;;;;;;5.60;5.60;;;;;26.18;47.14;101491.22;4956961;28;8861;-76
2021/08/13 07:52:20;;;;;;;;;6.00;6.00;;;;;26.20;47.29;101494.44;4957942;28;8873;-77
2021/08/13 07:55:16;;;;;;;;;5.60;5.60;;;;;26.14;46.62;101503.81;4960751;28;8868;-75
2021/08/13 07:58:12;;;;;;;;;6.80;6.80;;;;;26.05;45.71;101493.78;4944382;28;8857;-75
2021/08/13 08:01:09;;;;;;;;;6.40;6.40;;;;;26.23;48.13;101502.13;4942737;28;8861;-76
2021/08/13 08:04:06;;;;;;;;;5.80;5.80;;;;;26.31;48.04;101494.38;4955311;28;8983;-77
2021/08/13 08:07:02;;;;;;;;;6.00;6.00;;;;;26.13;47.37;101490.88;4942737;28;8870;-78
2021/08/13 08:09:58;;;;;;;;;6.20;5.60;;;;;26.30;47.68;101485.06;4952700;28;8869;-80
2021/08/13 08:12:53;;;;;;;;;5.40;5.40;;;;;26.25;47.38;101494.00;4954342;28;8889;-75
2021/08/13 08:15:49;;;;;;;;;6.20;6.00;;;;;26.36;47.17;101493.09;4953627;28;9589;-74
2021/08/13 08:18:45;;;;;;;;;7.00;7.00;;;;;26.37;47.11;101497.53;4953940;28;8882;-78
2021/08/13 08:21:42;;;;;;;;;5.00;5.00;;;;;26.38;46.28;101490.63;4952654;28;8867;-78
2021/08/13 08:24:38;;;;;;;;;7.20;7.20;;;;;26.56;46.88;101488.47;4954332;28;8886;-77
2021/08/13 08:27:34;;;;;;;;;6.80;6.80;;;;;26.19;46.25;101486.38;4949376;28;8932;-75
2021/08/13 08:30:31;;;;;;;;;7.00;7.00;;;;;26.20;46.25;101485.13;4948471;28;9002;-75
2021/08/13 08:33:27;;;;;;;;;7.60;7.60;;;;;25.97;46.83;101489.38;4952922;28;8832;-74
2021/08/13 08:36:22;;;;;;;;;6.80;6.80;;;;;26.33;45.92;101486.22;4953441;28;8840;-77
2021/08/13 08:39:21;;;;;;;;;5.20;5.00;;;;;26.24;46.40;101489.56;4950614;28;8839;-77
2021/08/13 08:42:29;;;;;;;;;8.40;8.40;;;;;26.20;46.68;101494.44;4919146;29;8866;-76
2021/08/13 08:44:58;;;;;;;;;5.00;5.00;;;;;26.30;46.09;101487.88;4919430;29;8861;-73
2021/08/13 08:47:57;;;;;;;;;9.40;9.40;;;;;26.24;47.64;101488.75;4925402;29;8883;-76
2021/08/13 08:50:53;;;;;;;;;8.60;7.80;;;;;26.60;47.92;101487.16;4924328;29;8855;-74
2021/08/13 08:53:50;;;;;;;;;5.20;5.20;;;;;26.53;47.01;101486.44;4919508;29;8867;-75
2021/08/13 08:56:51;;;;;;;;;9.40;9.40;;;;;26.42;47.71;101491.44;4914653;29;8861;-77
2021/08/13 08:59:46;;;;;;;;;8.60;8.00;;;;;26.48;46.83;101496.25;4908094;29;8954;-78
2021/08/13 09:02:43;;;;;;;;;7.80;7.80;;;;;26.66;46.50;101501.72;4909024;29;8863;-76
2021/08/13 09:05:40;;;;;;;;;12.00;9.00;;;;;26.67;47.21;101505.34;4919362;29;8863;-79
2021/08/13 09:08:36;;;;;;;;;5.40;5.40;;;;;26.84;46.62;101504.34;4921378;29;8871;-76
2021/08/13 09:11:34;;;;;;;;;5.80;5.80;;;;;26.76;45.64;101499.97;4916229;29;8887;-76
2021/08/13 09:14:38;;;;;;;;;9.00;9.00;;;;;26.63;45.93;101508.25;4921195;29;8947;-76
2021/08/13 09:17:34;;;;;;;;;5.80;5.80;;;;;26.91;44.70;101517.63;4924423;29;8870;-76
2021/08/13 09:20:39;;;;;;;;;6.40;6.40;;;;;26.87;46.27;101517.69;4917428;29;8940;-75
2021/08/13 09:23:41;;;;;;;;;5.80;5.80;;;;;26.88;45.14;101511.59;4916664;29;8852;-74
2021/08/13 09:26:42;;;;;;;;;6.40;6.40;;;;;27.18;45.21;101517.75;4915963;29;9706;-75
2021/08/13 09:29:38;;;;;;;;;4.80;4.80;;;;;27.05;45.37;101518.28;4905625;29;8874;-75
2021/08/13 09:32:34;;;;;;;;;6.60;6.60;;;;;27.11;44.23;101518.63;4911348;29;8875;-76
2021/08/13 09:35:38;;;;;;;;;7.00;6.00;;;;;27.05;44.38;101523.16;4915953;29;8852;-80
2021/08/13 09:38:34;;;;;;;;;14.80;11.20;;;;;27.19;44.67;101514.47;4913297;29;8876;-79
2021/08/13 09:41:43;;;;;;;;;12.80;11.40;;;;;27.13;44.77;101514.13;4921996;29;8897;-80
2021/08/13 09:44:40;;;;;;;;;10.40;10.00;;;;;27.34;44.68;101517.94;4920105;29;8837;-83
2021/08/13 09:47:40;;;;;;;;;8.00;7.40;;;;;27.40;43.93;101528.38;4927906;29;8856;-80
2021/08/13 09:50:39;;;;;;;;;5.40;5.40;;;;;27.41;43.56;101524.31;4893253;29;8854;-79
2021/08/13 10:02:22;;;;;;;;;16.00;16.00;;;;;27.56;42.63;101516.38;4919335;29;8796;-79
2021/08/13 10:05:19;;;;;;;;;12.80;12.80;;;;;27.60;42.07;101511.44;4917752;29;8856;-79
2021/08/13 10:08:14;;;;;;;;;9.40;9.40;;;;;27.58;41.49;101515.94;4918971;29;8856;-78
2021/08/13 10:11:14;;;;;;;;;8.40;8.40;;;;;27.37;41.07;101517.91;4920083;29;8833;-78
2021/08/13 10:14:10;;;;;;;;;18.00;18.00;;;;;27.71;42.21;101517.00;4924091;29;8894;-77
2021/08/13 10:17:26;;;;;;;;;8.60;7.20;;;;;27.84;42.22;101517.22;4919956;29;8856;-78
2021/08/13 10:20:26;;;;;;;;;9.80;9.80;;;;;27.53;41.33;101530.63;4906239;29;8850;-84
2021/08/13 10:23:22;;;;;;;;;7.00;7.00;;;;;27.61;41.53;101521.59;4913679;29;9570;-71
2021/08/13 10:26:23;;;;;;;;;6.80;6.80;;;;;27.74;42.08;101518.97;4917856;29;8879;-71
2021/08/13 10:29:22;;;;;;;;;6.20;6.20;;;;;27.58;41.54;101527.31;4919892;29;8846;-80
2021/08/13 10:32:19;;;;;;;;;9.20;8.60;;;;;27.63;42.33;101529.69;4907822;29;8856;-80
2021/08/13 10:35:16;;;;;;;;;6.60;6.60;;;;;27.75;40.96;101531.16;4919788;29;8859;-78
2021/08/13 10:38:16;;;;;;;;;6.00;6.00;;;;;27.90;41.28;101526.84;4919086;29;8910;-79
2021/08/13 10:41:16;;;;;;;;;5.40;5.40;;;;;27.98;40.59;101534.03;4933304;28;8875;-80
2021/08/13 10:44:18;;;;;;;;;9.20;9.20;;;;;28.11;41.59;101548.44;4924095;28;8854;-79
2021/08/13 10:47:19;;;;;;;;;5.80;5.80;;;;;27.92;41.22;101538.63;4940852;28;8914;-80
2021/08/13 10:50:17;;;;;;;;;5.00;5.00;;;;;27.93;41.32;101546.72;4923942;28;8858;-83
2021/08/13 10:53:31;;;;;;;;;7.20;7.20;;;;;27.80;41.06;101534.31;4936994;29;8831;-79
2021/08/13 10:56:50;;;;;;;;;12.40;12.40;;;;;27.92;41.99;101545.09;4924430;29;8854;-80
2021/08/13 10:59:53;;;;;;;;;17.40;17.00;;;;;27.57;41.46;101562.66;4926963;28;8831;-82
2021/08/13 11:03:13;;;;;;;;;8.00;8.00;;;;;28.08;41.13;101564.34;4937788;28;8866;-77
2021/08/13 11:06:10;;;;;;;;;10.20;10.20;;;;;28.03;40.97;101566.88;4936307;29;9666;-79
2021/08/13 11:09:33;;;;;;;;;8.80;8.80;;;;;28.12;39.71;101567.13;4937192;28;8945;-78
2021/08/13 11:12:29;;;;;;;;;9.00;9.00;;;;;28.21;40.52;101570.22;4932194;29;8854;-78
2021/08/13 11:15:43;;;;;;;;;12.00;11.80;;;;;28.11;40.23;101574.03;4950806;28;8852;-82
2021/08/13 11:18:39;;;;;;;;;6.80;6.80;;;;;28.13;41.69;101558.16;4941157;28;8904;-79
2021/08/13 11:21:36;;;;;;;;;9.40;9.40;;;;;27.97;40.76;101553.13;4943089;28;8866;-80
2021/08/13 11:24:52;;;;;;;;;10.40;10.40;;;;;28.04;41.70;101552.22;4923461;29;8845;-77
2021/08/13 11:28:19;;;;;;;;;7.60;7.60;;;;;27.87;40.98;101550.47;4918414;29;8977;-79
2021/08/13 11:31:50;;;;;;;;;8.80;8.80;;;;;27.57;41.51;101548.44;4918692;29;8855;-79
2021/08/13 11:34:49;;;;;;;;;10.40;9.80;;;;;27.61;40.99;101547.16;4936777;29;8859;-78
2021/08/13 11:37:46;;;;;;;;;7.00;5.80;;;;;27.50;40.27;101548.53;4938015;29;8849;-83
2021/08/13 11:40:41;;;;;;;;;7.20;7.20;;;;;27.82;41.08;101548.09;4939305;29;8856;-82
2021/08/13 11:43:41;;;;;;;;;7.20;7.20;;;;;27.75;41.22;101557.53;4937083;29;8829;-82
2021/08/13 11:46:42;;;;;;;;;10.80;10.80;;;;;27.83;41.36;101550.50;4928725;29;8873;-79
2021/08/13 11:49:40;;;;;;;;;9.20;9.20;;;;;27.61;40.58;101546.38;4937133;29;8856;-83
2021/08/13 11:52:36;;;;;;;;;7.00;7.00;;;;;27.62;41.27;101543.09;4924854;29;8857;-80
2021/08/13 11:55:34;;;;;;;;;7.60;7.60;;;;;27.64;40.44;101545.50;4924704;29;8852;-80
2021/08/13 11:58:29;;;;;;;;;7.60;6.80;;;;;27.25;41.36;101541.16;4925476;29;8853;-79
2021/08/13 12:01:25;;;;;;;;;9.00;9.00;;;;;27.57;41.13;101542.75;4923454;28;8841;-80
2021/08/13 12:04:26;;;;;;;;;8.80;8.80;;;;;27.34;41.05;101540.66;4934167;29;8920;-83
2021/08/13 12:07:23;;;;;;;;;12.80;9.60;;;;;27.33;41.91;101539.03;4924336;29;8880;-78
2021/08/13 12:10:19;;;;;;;;;8.00;8.00;;;;;27.54;41.71;101535.91;4937085;29;8845;-78
2021/08/13 12:13:16;;;;;;;;;8.80;8.80;;;;;27.35;39.91;101540.22;4939883;29;8877;-80
2021/08/13 12:16:18;;;;;;;;;9.00;7.80;;;;;27.20;40.65;101533.13;4936414;29;8873;-85
2021/08/13 12:19:14;;;;;;;;;6.40;5.80;;;;;27.43;40.11;101538.88;4924708;29;8902;-80
2021/08/13 12:22:10;;;;;;;;;9.40;8.80;;;;;27.59;41.07;101545.97;4936517;29;8860;-77
2021/08/13 12:25:10;;;;;;;;;8.60;8.60;;;;;27.41;40.47;101541.34;4937319;29;8895;-81
2021/08/13 12:28:07;;;;;;;;;5.80;5.80;;;;;27.31;40.59;101538.66;4926136;29;8888;-82
2021/08/13 12:31:12;;;;;;;;;8.00;8.00;;;;;27.77;41.07;101546.56;4918836;29;8872;-79
2021/08/13 12:34:23;;;;;;;;;8.20;8.20;;;;;27.95;40.43;101549.13;4937407;29;9646;-81
2021/08/13 12:37:21;;;;;;;;;8.00;8.00;;;;;28.18;39.58;101545.50;4953592;28;8997;-80
2021/08/13 12:40:18;;;;;;;;;5.80;5.80;;;;;28.48;39.74;101548.22;4935381;29;9638;-80
2021/08/13 12:43:17;;;;;;;;;8.00;8.00;;;;;28.53;39.00;101541.25;4917038;29;8863;-86
2021/08/13 12:46:13;;;;;;;;;7.20;7.20;;;;;28.65;39.02;101531.25;4929134;29;8869;-81
2021/08/13 12:49:10;;;;;;;;;7.60;7.60;;;;;28.87;38.77;101545.88;4917590;29;8867;-79
2021/08/13 12:52:20;;;;;;;;;6.40;5.00;;;;;28.80;38.95;101538.28;4929067;29;8931;-79
2021/08/13 12:55:17;;;;;;;;;5.60;5.60;;;;;28.53;39.57;101532.72;4938101;28;8847;-79
2021/08/13 12:58:29;;;;;;;;;8.60;8.60;;;;;28.55;38.83;101529.44;4923559;29;8865;-78
2021/08/13 13:01:30;;;;;;;;;7.20;7.20;;;;;28.55;39.60;101540.81;4937237;29;8845;-79
2021/08/13 13:04:40;;;;;;;;;8.20;8.20;;;;;28.52;39.85;101531.91;4923062;29;8860;-79
2021/08/13 13:07:13;;;;;;;;;5.00;5.00;;;;;28.58;39.93;101534.25;4920789;29;8883;-77
2021/08/13 13:10:28;;;;;;;;;6.00;6.00;;;;;28.38;38.88;101525.69;4936635;29;8868;-79
2021/08/13 13:13:24;;;;;;;;;6.00;6.00;;;;;28.41;39.27;101528.44;4936079;29;8845;-79
2021/08/13 13:16:20;;;;;;;;;4.00;4.00;;;;;28.65;38.75;101532.06;4924617;29;8879;-79
2021/08/13 13:19:19;;;;;;;;;11.00;10.00;;;;;28.79;38.68;101525.28;4934590;29;8842;-80
2021/08/13 13:22:20;;;;;;;;;8.80;8.80;;;;;28.68;38.67;101524.72;4922784;29;8891;-78
2021/08/13 13:25:19;;;;;;;;;11.00;11.00;;;;;28.99;39.48;101520.44;4936189;29;8973;-78
2021/08/13 13:28:30;;;;;;;;;10.20;9.60;;;;;29.22;38.55;101524.44;4935127;29;8861;-81
2021/08/13 13:31:26;;;;;;;;;11.20;10.80;;;;;29.02;38.44;101530.94;4923891;29;8980;-80
2021/08/13 13:34:22;;;;;;;;;10.00;10.00;;;;;29.18;38.78;101538.75;4935487;29;8900;-83
2021/08/13 13:37:21;;;;;;;;;4.40;4.40;;;;;28.91;38.91;101532.41;4915140;29;8845;-80
2021/08/13 13:40:17;;;;;;;;;7.80;7.80;;;;;28.80;38.54;101527.69;4923624;29;8864;-79
2021/08/13 13:43:13;;;;;;;;;8.00;8.00;;;;;28.69;39.03;101535.66;4935708;29;8849;-84
2021/08/13 13:46:08;;;;;;;;;8.80;8.80;;;;;28.70;40.88;101534.41;4921957;29;8845;-79
2021/08/13 13:49:04;;;;;;;;;9.20;9.20;;;;;28.59;40.51;101533.78;4935518;29;9649;-79
2021/08/13 13:51:35;;;;;;;;;11.00;11.00;;;;;28.41;39.46;101530.50;4939208;29;8921;-78
2021/08/13 13:54:31;;;;;;;;;8.80;8.80;;;;;28.38;40.36;101535.03;4925035;29;8853;-82
2021/08/13 13:57:27;;;;;;;;;20.00;14.60;;;;;28.31;39.58;101535.16;4922739;29;8877;-79